createdAt,value
2018-02-03T00:02:05.693Z,14.50
2018-02-03T00:04:33.967Z,14.50
2018-02-03T00:07:02.252Z,17.03
2018-02-03T00:09:31.325Z,15.97
2018-02-03T00:12:00.350Z,16.13
2018-02-03T00:14:28.681Z,17.27
2018-02-03T00:16:56.963Z,16.53
2018-02-03T00:19:25.984Z,18.27
2018-02-03T00:21:55.105Z,18.10
2018-02-03T00:24:23.374Z,17.93
2018-02-03T00:26:51.607Z,17.47
2018-02-03T00:29:20.591Z,18.80
2018-02-03T00:31:48.950Z,18.87
2018-02-03T00:34:17.145Z,19.03
2018-02-03T00:36:45.440Z,18.33
2018-02-03T00:39:14.536Z,18.77
2018-02-03T00:41:43.501Z,19.20
2018-02-03T00:44:11.722Z,18.63
2018-02-03T00:46:39.972Z,20.07
2018-02-03T00:49:08.936Z,20.23
2018-02-03T00:51:37.180Z,19.40
2018-02-03T00:54:05.620Z,17.90
2018-02-03T00:56:34.701Z,17.17
2018-02-03T00:59:02.922Z,17.53
2018-02-03T01:01:31.168Z,19.53
2018-02-03T01:04:01.428Z,19.77
2018-02-03T01:06:29.664Z,18.33
2018-02-03T01:08:58.641Z,18.23
2018-02-03T01:11:26.832Z,18.13
2018-02-03T01:13:55.841Z,20.07
2018-02-03T01:16:24.831Z,18.73
2018-02-03T01:18:53.995Z,18.90
2018-02-03T01:21:22.380Z,18.83
2018-02-03T01:23:50.579Z,18.37
2018-02-03T01:26:19.544Z,16.87
2018-02-03T01:28:47.787Z,17.97
2018-02-03T01:31:15.992Z,18.83
2018-02-03T01:33:44.196Z,19.37
2018-02-03T01:36:13.212Z,17.20
2018-02-03T01:38:41.470Z,18.50
2018-02-03T01:41:10.428Z,18.63
2018-02-03T01:43:38.853Z,17.70
2018-02-03T01:46:07.103Z,19.27
2018-02-03T01:48:36.116Z,20.13
2018-02-03T01:51:05.081Z,19.57
2018-02-03T01:53:33.281Z,19.20
2018-02-03T01:56:01.487Z,19.17
2018-02-03T01:58:29.788Z,18.93
2018-02-03T02:00:57.980Z,19.10
2018-02-03T02:03:26.222Z,17.63
2018-02-03T02:05:55.564Z,17.87
2018-02-03T02:08:23.821Z,18.53
2018-02-03T02:10:52.085Z,18.90
2018-02-03T02:13:20.310Z,17.40
2018-02-03T02:15:49.280Z,16.70
2018-02-03T02:18:17.500Z,17.57
2018-02-03T02:20:45.716Z,17.77
2018-02-03T02:23:13.907Z,17.70
2018-02-03T02:25:42.104Z,17.90
2018-02-03T02:28:10.402Z,18.60
2018-02-03T02:30:38.698Z,17.20
2018-02-03T02:33:06.884Z,18.80
2018-02-03T02:35:35.127Z,17.50
2018-02-03T02:38:03.332Z,16.57
2018-02-03T02:40:31.521Z,17.23
2018-02-03T02:42:59.748Z,17.97
2018-02-03T02:45:28.268Z,17.63
2018-02-03T02:47:56.469Z,17.03
2018-02-03T02:50:24.760Z,17.13
2018-02-03T02:52:53.728Z,18.30
2018-02-03T02:55:22.049Z,16.57
2018-02-03T02:57:50.280Z,16.47
2018-02-03T03:00:18.502Z,16.20
2018-02-03T03:02:46.727Z,16.23
2018-02-03T03:05:14.956Z,16.37
2018-02-03T03:07:45.668Z,17.10
2018-02-03T03:10:14.708Z,17.17
2018-02-03T03:12:42.941Z,16.53
2018-02-03T03:15:11.142Z,16.50
2018-02-03T03:17:39.743Z,15.67
2018-02-03T03:20:07.988Z,15.57
2018-02-03T03:22:36.504Z,16.87
2018-02-03T03:25:04.713Z,15.07
2018-02-03T03:27:33.721Z,15.93
2018-02-03T03:30:02.752Z,16.13
2018-02-03T03:32:30.976Z,14.73
2018-02-03T03:34:59.244Z,15.63
2018-02-03T03:37:27.443Z,15.60
2018-02-03T03:39:55.665Z,15.83
2018-02-03T03:42:23.910Z,16.23
2018-02-03T03:44:52.104Z,16.37
2018-02-03T03:47:20.307Z,17.17
2018-02-03T03:49:48.556Z,15.27
2018-02-03T03:52:16.768Z,17.33
2018-02-03T03:54:44.996Z,15.87
2018-02-03T03:57:13.280Z,16.00
2018-02-03T03:59:41.612Z,15.77
2018-02-03T04:02:10.606Z,14.87
2018-02-03T04:07:13.651Z,15.13
2018-02-03T04:09:42.105Z,13.70
2018-02-03T04:12:10.312Z,14.30
2018-02-03T04:14:38.599Z,13.17
2018-02-03T04:17:06.840Z,13.60
2018-02-03T04:19:35.046Z,13.13
2018-02-03T04:22:03.303Z,13.33
2018-02-03T04:24:31.495Z,12.77
2018-02-03T04:26:59.710Z,12.20
2018-02-03T04:29:28.039Z,14.23
2018-02-03T04:31:56.242Z,13.20
2018-02-03T04:34:24.434Z,14.40
2018-02-03T04:36:52.716Z,14.60
2018-02-03T04:39:21.710Z,15.17
2018-02-03T04:41:49.896Z,15.70
2018-02-03T04:44:18.897Z,15.93
2018-02-03T04:46:47.106Z,14.70
2018-02-03T04:49:15.317Z,17.23
2018-02-03T04:51:43.544Z,14.87
2018-02-03T04:54:11.789Z,15.53
2018-02-03T04:56:40.892Z,16.63
2018-02-03T04:59:09.191Z,15.20
2018-02-03T05:01:37.440Z,16.67
2018-02-03T05:04:05.652Z,18.57
2018-02-03T05:06:33.916Z,16.27
2018-02-03T05:09:02.192Z,18.50
2018-02-03T05:11:30.482Z,17.73
2018-02-03T05:13:58.713Z,17.40
2018-02-03T05:16:27.680Z,18.30
2018-02-03T05:18:55.995Z,17.90
2018-02-03T05:21:24.231Z,17.13
2018-02-03T05:23:52.431Z,15.73
2018-02-03T05:28:52.156Z,16.50
2018-02-03T05:31:21.278Z,16.37
2018-02-03T05:33:49.560Z,15.47
2018-02-03T05:36:17.792Z,17.63
2018-02-03T05:38:46.003Z,15.13
2018-02-03T05:41:14.205Z,15.70
2018-02-03T05:43:43.656Z,15.20
2018-02-03T05:46:13.140Z,16.43
2018-02-03T05:48:41.436Z,16.53
2018-02-03T05:51:10.432Z,15.47
2018-02-03T05:53:39.432Z,15.87
2018-02-03T05:56:07.688Z,15.87
2018-02-03T05:58:35.921Z,15.93
2018-02-03T06:01:04.122Z,16.43
2018-02-03T06:03:32.357Z,15.63
2018-02-03T06:06:00.649Z,15.57
2018-02-03T06:08:29.268Z,17.87
2018-02-03T06:10:57.482Z,17.17
2018-02-03T06:13:25.848Z,17.13
2018-02-03T06:15:54.964Z,17.33
2018-02-03T06:18:23.184Z,15.20
2018-02-03T06:20:51.456Z,17.40
2018-02-03T06:23:19.666Z,17.83
2018-02-03T06:25:48.632Z,17.70
2018-02-03T06:28:16.908Z,17.40
2018-02-03T06:30:45.133Z,16.73
2018-02-03T06:33:14.125Z,17.97
2018-02-03T06:35:42.824Z,19.70
2018-02-03T06:38:11.249Z,17.30
2018-02-03T06:40:39.457Z,18.20
2018-02-03T06:43:08.604Z,19.57
2018-02-03T06:45:36.804Z,19.53
2018-02-03T06:48:05.045Z,18.27
2018-02-03T06:50:34.369Z,19.40
2018-02-03T06:53:03.400Z,21.87
2018-02-03T06:55:32.093Z,19.60
2018-02-03T06:58:01.077Z,19.23
2018-02-03T07:00:29.439Z,18.00
2018-02-03T07:02:57.665Z,20.63
2018-02-03T07:05:26.725Z,18.03
2018-02-03T07:07:55.153Z,19.47
2018-02-03T07:10:23.434Z,18.07
2018-02-03T07:12:51.812Z,18.60
2018-02-03T07:15:20.192Z,18.37
2018-02-03T07:17:48.588Z,20.77
2018-02-03T07:20:16.891Z,17.73
2018-02-03T07:22:45.116Z,18.87
2018-02-03T07:25:13.329Z,19.97
2018-02-03T07:27:42.493Z,19.67
2018-02-03T07:30:10.684Z,18.70
2018-02-03T07:32:38.900Z,20.67
2018-02-03T07:35:07.432Z,17.97
2018-02-03T07:37:35.681Z,18.50
2018-02-03T07:40:04.646Z,18.50
2018-02-03T07:42:32.896Z,18.23
2018-02-03T07:45:01.121Z,19.07
2018-02-03T07:47:30.257Z,20.40
2018-02-03T07:49:58.457Z,18.57
2018-02-03T07:52:27.140Z,18.67
2018-02-03T07:54:55.483Z,16.37
2018-02-03T07:57:23.956Z,17.17
2018-02-03T07:59:52.490Z,18.50
2018-02-03T08:02:20.720Z,17.60
2018-02-03T08:04:49.724Z,20.23
2018-02-03T08:07:17.940Z,19.63
2018-02-03T08:09:46.202Z,20.43
2018-02-03T08:12:14.432Z,18.57
2018-02-03T08:14:43.505Z,21.20
2018-02-03T08:17:11.752Z,21.73
2018-02-03T08:19:40.028Z,19.60
2018-02-03T08:22:08.245Z,19.73
2018-02-03T08:24:36.429Z,21.63
2018-02-03T08:27:05.460Z,21.37
2018-02-03T08:29:34.413Z,19.40
2018-02-03T08:32:02.639Z,21.43
2018-02-03T08:34:30.962Z,20.37
2018-02-03T08:36:59.592Z,22.40
2018-02-03T08:39:28.714Z,21.43
2018-02-03T08:41:57.014Z,20.00
2018-02-03T08:44:25.199Z,19.47
2018-02-03T08:46:53.421Z,19.23
2018-02-03T08:49:22.441Z,18.93
2018-02-03T08:51:51.403Z,20.37
2018-02-03T08:54:20.374Z,18.87
2018-02-03T08:56:48.640Z,19.73
2018-02-03T08:59:16.930Z,17.87
2018-02-03T09:01:45.188Z,19.07
2018-02-03T09:04:13.432Z,17.57
2018-02-03T09:06:41.759Z,18.20
2018-02-03T09:09:10.017Z,18.73
2018-02-03T09:11:38.248Z,17.90
2018-02-03T09:14:06.721Z,16.23
2018-02-03T09:16:34.909Z,15.43
2018-02-03T09:19:03.240Z,16.40
2018-02-03T09:21:31.512Z,15.70
2018-02-03T09:23:59.732Z,15.47
2018-02-03T09:26:28.052Z,15.77
2018-02-03T09:28:56.344Z,16.70
2018-02-03T09:31:24.550Z,16.77
2018-02-03T09:33:53.546Z,15.73
2018-02-03T09:36:22.587Z,16.33
2018-02-03T09:38:51.233Z,15.87
2018-02-03T09:41:19.564Z,16.63
2018-02-03T09:43:47.785Z,16.10
2018-02-03T09:46:17.125Z,16.00
2018-02-03T09:48:45.384Z,16.53
2018-02-03T09:51:14.393Z,15.13
2018-02-03T09:53:42.738Z,14.67
2018-02-03T09:56:11.838Z,15.87
2018-02-03T09:58:40.024Z,15.57
2018-02-03T10:01:08.988Z,15.73
2018-02-03T10:03:37.282Z,16.10
2018-02-03T10:06:05.534Z,17.00
2018-02-03T10:08:33.740Z,16.20
2018-02-03T10:11:02.787Z,15.77
2018-02-03T10:13:31.017Z,16.37
2018-02-03T10:16:00.000Z,16.17
2018-02-03T10:18:29.004Z,14.70
2018-02-03T10:20:58.054Z,13.73
2018-02-03T10:23:26.275Z,13.47
2018-02-03T10:25:55.384Z,12.10
2018-02-03T10:28:23.650Z,13.47
2018-02-03T10:30:53.618Z,14.00
2018-02-03T10:33:21.880Z,14.20
2018-02-03T10:35:50.102Z,13.10
2018-02-03T10:38:18.376Z,12.53
2018-02-03T10:40:46.636Z,13.30
2018-02-03T10:43:14.835Z,13.23
2018-02-03T10:45:43.101Z,13.13
2018-02-03T10:48:12.079Z,12.80
2018-02-03T10:50:40.352Z,12.77
2018-02-03T10:53:08.556Z,12.40
2018-02-03T10:55:37.004Z,14.57
2018-02-03T10:58:05.216Z,14.43
2018-02-03T11:00:39.110Z,12.80
2018-02-03T11:03:08.152Z,13.13
2018-02-03T11:05:36.359Z,13.80
2018-02-03T11:08:04.610Z,14.13
2018-02-03T11:10:32.796Z,15.17
2018-02-03T11:13:01.068Z,14.07
2018-02-03T11:15:29.568Z,13.37
2018-02-03T11:17:57.990Z,13.73
2018-02-03T11:20:26.163Z,14.30
2018-02-03T11:22:55.819Z,14.30
2018-02-03T11:25:24.010Z,13.83
2018-02-03T11:27:52.322Z,14.47
2018-02-03T11:30:20.581Z,14.27
2018-02-03T11:32:48.780Z,14.37
2018-02-03T11:35:17.112Z,14.43
2018-02-03T11:37:45.494Z,13.13
2018-02-03T11:40:13.690Z,13.70
2018-02-03T11:42:41.976Z,12.97
2018-02-03T11:45:10.303Z,14.47
2018-02-03T11:47:39.320Z,12.40
2018-02-03T11:50:07.666Z,14.50
2018-02-03T11:52:36.694Z,13.73
2018-02-03T11:55:09.760Z,13.77
2018-02-03T11:57:38.814Z,15.20
2018-02-03T12:00:07.024Z,16.10
2018-02-03T12:02:36.020Z,9.90
2018-02-03T12:05:05.484Z,10.87
2018-02-03T12:07:33.811Z,11.97
2018-02-03T12:10:02.843Z,11.77
2018-02-03T12:12:31.064Z,13.37
2018-02-03T12:14:59.297Z,12.97
2018-02-03T12:17:27.529Z,12.87
2018-02-03T12:19:56.837Z,12.33
2018-02-03T12:22:25.808Z,16.70
2018-02-03T12:24:54.084Z,14.57
2018-02-03T12:29:55.060Z,18.10
2018-02-03T12:32:24.044Z,13.03
2018-02-03T12:34:53.036Z,12.23
2018-02-03T12:37:22.044Z,11.70
2018-02-03T12:39:51.005Z,12.00
2018-02-03T12:42:19.248Z,11.67
2018-02-03T12:44:47.740Z,12.23
2018-02-03T12:47:15.907Z,11.40
2018-02-03T12:49:44.116Z,12.00
2018-02-03T12:52:12.352Z,10.90
2018-02-03T12:54:40.576Z,12.53
2018-02-03T12:57:08.778Z,12.03
2018-02-03T12:59:37.080Z,12.90
2018-02-03T13:02:05.392Z,11.87
2018-02-03T13:04:35.304Z,11.97
2018-02-03T13:07:03.525Z,12.17
2018-02-03T13:09:31.720Z,16.70
2018-02-03T13:11:59.941Z,11.60
2018-02-03T13:14:28.192Z,13.47
2018-02-03T13:16:56.416Z,10.97
2018-02-03T13:19:24.688Z,10.90
2018-02-03T13:21:52.995Z,10.90
2018-02-03T13:24:21.272Z,11.60
2018-02-03T13:26:49.577Z,10.23
2018-02-03T13:29:17.809Z,10.20
2018-02-03T13:31:46.094Z,10.87
2018-02-03T13:34:14.378Z,10.40
2018-02-03T13:39:18.809Z,10.17
2018-02-03T13:41:47.049Z,10.80
2018-02-03T13:44:15.228Z,10.10
2018-02-03T13:46:44.228Z,10.60
2018-02-03T13:49:13.199Z,10.37
2018-02-03T13:51:41.451Z,10.10
2018-02-03T13:54:10.902Z,9.83
2018-02-03T13:56:40.672Z,10.70
2018-02-03T13:59:10.393Z,9.67
2018-02-03T14:01:38.663Z,10.20
2018-02-03T14:04:06.864Z,9.90
2018-02-03T14:06:35.128Z,10.33
2018-02-03T14:09:04.849Z,11.63
2018-02-03T14:11:33.885Z,11.57
2018-02-03T14:14:02.142Z,14.87
2018-02-03T14:16:30.453Z,10.73
2018-02-03T14:18:58.676Z,10.60
2018-02-03T14:21:27.668Z,11.77
2018-02-03T14:24:02.357Z,11.00
2018-02-03T14:26:30.561Z,12.13
2018-02-03T14:28:58.956Z,12.60
2018-02-03T14:31:27.277Z,13.13
2018-02-03T14:33:55.485Z,10.90
2018-02-03T14:36:23.680Z,11.40
2018-02-03T14:38:52.680Z,11.73
2018-02-03T14:41:20.893Z,11.73
2018-02-03T14:43:49.292Z,12.27
2018-02-03T14:46:17.631Z,12.10
2018-02-03T14:48:45.841Z,12.83
2018-02-03T14:51:14.092Z,11.83
2018-02-03T14:53:43.356Z,12.60
2018-02-03T14:56:12.633Z,12.03
2018-02-03T14:58:40.793Z,11.50
2018-02-03T15:01:09.039Z,12.07
2018-02-03T15:03:37.376Z,12.60
2018-02-03T15:06:05.580Z,11.77
2018-02-03T15:08:34.596Z,11.20
2018-02-03T15:11:02.819Z,12.27
2018-02-03T15:13:31.060Z,10.37
2018-02-03T15:15:59.307Z,11.77
2018-02-03T15:18:28.312Z,12.30
2018-02-03T15:20:56.509Z,15.90
2018-02-03T15:23:24.739Z,11.90
2018-02-03T15:25:53.715Z,14.67
2018-02-03T15:28:21.921Z,14.80
2018-02-03T15:30:52.128Z,15.27
2018-02-03T15:33:21.118Z,17.80
2018-02-03T15:35:50.248Z,15.47
2018-02-03T15:38:18.471Z,13.77
2018-02-03T15:40:46.685Z,14.47
2018-02-03T15:43:14.880Z,13.07
2018-02-03T15:45:43.916Z,13.87
2018-02-03T15:48:12.140Z,12.97
2018-02-03T15:50:40.411Z,12.73
2018-02-03T15:53:08.629Z,12.80
2018-02-03T15:55:36.848Z,13.43
2018-02-03T15:58:05.283Z,14.23
2018-02-03T16:00:33.535Z,13.53
2018-02-03T16:03:01.740Z,14.63
2018-02-03T16:05:30.398Z,15.37
2018-02-03T16:07:59.065Z,15.20
2018-02-03T16:10:27.371Z,16.47
2018-02-03T16:12:55.610Z,16.40
2018-02-03T16:15:23.984Z,16.10
2018-02-03T16:17:52.376Z,17.80
2018-02-03T16:20:21.364Z,17.70
2018-02-03T16:22:49.603Z,19.30
2018-02-03T16:25:17.800Z,17.10
2018-02-03T16:27:46.005Z,17.93
2018-02-03T16:30:14.212Z,16.57
2018-02-03T16:32:44.417Z,16.50
2018-02-03T16:35:12.621Z,15.20
2018-02-03T16:37:40.944Z,17.63
2018-02-03T16:40:09.141Z,17.17
2018-02-03T16:42:37.384Z,18.43
2018-02-03T16:45:05.622Z,18.50
2018-02-03T16:47:34.584Z,19.30
2018-02-03T16:50:02.791Z,18.93
2018-02-03T16:52:31.799Z,18.00
2018-02-03T16:55:00.009Z,19.93
2018-02-03T16:57:28.208Z,20.80
2018-02-03T16:59:56.475Z,20.27
2018-02-03T17:02:24.713Z,19.37
2018-02-03T17:04:53.102Z,21.63
2018-02-03T17:07:22.187Z,21.93
2018-02-03T17:09:50.383Z,20.50
2018-02-03T17:12:18.608Z,20.27
2018-02-03T17:14:46.876Z,31.23
2018-02-03T17:17:15.872Z,34.70
2018-02-03T17:19:44.076Z,31.60
2018-02-03T17:22:13.124Z,36.50
2018-02-03T17:24:42.291Z,34.80
2018-02-03T17:27:10.484Z,27.87
2018-02-03T17:29:38.716Z,27.10
2018-02-03T17:32:07.716Z,24.33
2018-02-03T17:34:36.834Z,25.17
2018-02-03T17:37:10.769Z,24.40
2018-02-03T17:39:39.120Z,24.20
2018-02-03T17:42:07.497Z,21.47
2018-02-03T17:44:35.819Z,20.33
2018-02-03T17:47:05.624Z,20.90
2018-02-03T17:49:33.859Z,20.97
2018-02-03T17:52:02.136Z,20.33
2018-02-03T17:54:31.104Z,20.27
2018-02-03T17:57:05.827Z,21.10
2018-02-03T17:59:34.029Z,21.37
2018-02-03T18:02:02.276Z,24.83
2018-02-03T18:04:30.564Z,26.07
2018-02-03T18:07:05.588Z,21.30
2018-02-03T18:09:33.826Z,21.40
2018-02-03T18:12:02.028Z,22.13
2018-02-03T18:14:30.308Z,19.80
2018-02-03T18:16:58.696Z,20.40
2018-02-03T18:19:26.981Z,37.63
2018-02-03T18:21:56.040Z,34.13
2018-02-03T18:24:24.336Z,35.57
2018-02-03T18:26:52.666Z,24.47
2018-02-03T18:29:21.602Z,31.97
2018-02-03T18:31:49.964Z,23.27
2018-02-03T18:34:18.165Z,23.53
2018-02-03T18:36:46.448Z,20.03
2018-02-03T18:39:15.433Z,26.17
2018-02-03T18:41:43.638Z,29.00
2018-02-03T18:44:12.216Z,22.03
2018-02-03T18:46:40.469Z,19.87
2018-02-03T18:49:08.666Z,20.47
2018-02-03T18:51:37.651Z,22.27
2018-02-03T18:54:06.717Z,20.07
2018-02-03T18:56:35.073Z,20.00
2018-02-03T18:59:03.337Z,23.03
2018-02-03T19:01:31.585Z,25.43
2018-02-03T19:04:00.565Z,21.00
2018-02-03T19:06:29.537Z,22.23
2018-02-03T19:08:57.816Z,20.53
2018-02-03T19:11:26.066Z,18.97
2018-02-03T19:13:54.344Z,19.70
2018-02-03T19:16:22.645Z,17.93
2018-02-03T19:18:50.860Z,18.43
2018-02-03T19:21:19.068Z,19.33
2018-02-03T19:23:47.349Z,18.17
2018-02-03T19:26:15.637Z,19.37
2018-02-03T19:28:43.869Z,20.00
2018-02-03T19:31:12.168Z,21.40
2018-02-03T19:33:40.368Z,20.57
2018-02-03T19:36:08.639Z,22.70
2018-02-03T19:38:36.893Z,22.23
2018-02-03T19:41:05.116Z,23.00
2018-02-03T19:43:34.095Z,21.27
2018-02-03T19:46:02.358Z,21.83
2018-02-03T19:48:30.592Z,20.80
2018-02-03T19:50:58.810Z,20.60
2018-02-03T19:53:27.060Z,20.63
2018-02-03T19:55:55.285Z,21.03
2018-02-03T19:58:23.497Z,20.50
2018-02-03T20:00:51.725Z,19.87
2018-02-03T20:03:20.103Z,21.80
2018-02-03T20:05:48.322Z,21.63
2018-02-03T20:08:16.559Z,21.43
2018-02-03T20:10:45.011Z,19.80
2018-02-03T20:13:13.196Z,21.93
2018-02-03T20:15:41.537Z,22.47
2018-02-03T20:18:09.777Z,25.03
2018-02-03T20:20:38.919Z,25.63
2018-02-03T20:23:07.170Z,26.00
2018-02-03T20:25:35.392Z,22.57
2018-02-03T20:28:04.106Z,22.50
2018-02-03T20:30:33.533Z,22.23
2018-02-03T20:33:01.752Z,21.87
2018-02-03T20:35:29.985Z,23.87
2018-02-03T20:37:58.433Z,22.80
2018-02-03T20:40:28.634Z,21.10
2018-02-03T20:42:56.912Z,21.70
2018-02-03T20:45:25.181Z,23.17
2018-02-03T20:47:53.452Z,21.20
2018-02-03T20:50:21.764Z,23.13
2018-02-03T20:52:50.799Z,20.23
2018-02-03T20:55:19.004Z,23.33
2018-02-03T20:57:47.282Z,23.03
2018-02-03T21:00:16.578Z,21.43
2018-02-03T21:02:44.907Z,23.07
2018-02-03T21:05:13.130Z,17.67
2018-02-03T21:07:41.388Z,18.40
2018-02-03T21:10:09.667Z,19.20
2018-02-03T21:12:38.680Z,19.20
2018-02-03T21:15:07.166Z,18.07
2018-02-03T21:17:35.376Z,17.13
2018-02-03T21:20:04.412Z,17.13
2018-02-03T21:25:01.750Z,18.53
2018-02-03T21:27:30.879Z,17.67
2018-02-03T21:29:59.180Z,16.97
2018-02-03T21:32:27.428Z,16.93
2018-02-03T21:34:55.641Z,16.27
2018-02-03T21:37:23.876Z,17.93
2018-02-03T21:39:52.185Z,15.90
2018-02-03T21:42:20.452Z,17.73
2018-02-03T21:44:48.658Z,16.63
2018-02-03T21:47:17.086Z,18.70
2018-02-03T21:49:45.360Z,21.93
2018-02-03T21:52:14.318Z,22.83
2018-02-03T21:54:43.379Z,25.33
2018-02-03T21:57:11.664Z,22.50
2018-02-03T21:59:39.860Z,15.90
2018-02-03T22:02:08.140Z,16.57
2018-02-03T22:04:37.148Z,17.70
2018-02-03T22:07:06.122Z,18.90
2018-02-03T22:09:36.088Z,16.27
2018-02-03T22:12:04.686Z,20.17
2018-02-03T22:14:32.948Z,18.93
2018-02-03T22:17:01.230Z,20.20
2018-02-03T22:19:29.466Z,19.23
2018-02-03T22:21:58.451Z,16.83
2018-02-03T22:24:26.928Z,16.17
2018-02-03T22:26:55.198Z,15.23
2018-02-03T22:29:23.424Z,16.20
2018-02-03T22:31:51.753Z,16.97
2018-02-03T22:34:19.974Z,17.53
2018-02-03T22:36:48.236Z,18.50
2018-02-03T22:39:17.232Z,17.90
2018-02-03T22:41:45.540Z,19.03
2018-02-03T22:44:14.022Z,18.53
2018-02-03T22:46:42.248Z,18.57
2018-02-03T22:49:11.248Z,19.30
2018-02-03T22:51:40.224Z,18.00
2018-02-03T22:54:08.494Z,19.27
2018-02-03T22:56:36.715Z,18.33
2018-02-03T22:59:04.968Z,19.33
2018-02-03T23:01:35.073Z,22.50
2018-02-03T23:04:03.241Z,21.10
2018-02-03T23:06:31.515Z,20.17
2018-02-03T23:08:59.893Z,20.70
2018-02-03T23:11:28.112Z,21.60
2018-02-03T23:13:57.131Z,21.37
2018-02-03T23:16:25.439Z,21.10
2018-02-03T23:18:53.676Z,21.77
2018-02-03T23:21:21.931Z,22.33
2018-02-03T23:23:51.028Z,18.90
2018-02-03T23:26:20.732Z,19.03
2018-02-03T23:28:48.947Z,18.30
2018-02-03T23:31:17.405Z,20.37
2018-02-03T23:33:45.726Z,22.07
2018-02-03T23:36:13.950Z,21.47
2018-02-03T23:38:42.306Z,20.00
2018-02-03T23:41:10.530Z,21.57
2018-02-03T23:43:38.985Z,23.20
2018-02-03T23:46:07.471Z,19.47
2018-02-03T23:48:35.671Z,22.40
2018-02-03T23:51:04.036Z,21.60
2018-02-03T23:53:32.306Z,22.63
2018-02-03T23:56:00.932Z,22.03
2018-02-03T23:58:29.157Z,19.47
